Weather at Ekshärad Airport

Public forecast

Using degrees Celsius for public forecast. Weather courtesy of forecast.io.

Closest aviation weather report (METAR) to Ekshärad Airport

Report is more than 6 hours old.

Closest report is Hagfors Airport, 8.2 nm (15.2 km) S.

2022/11/14 15:20 (retrieved 2 years ago)

ESOH 141520Z 29002KT 9999 OVC006 07/07 Q1022 REDZ

Closest aviation forecast (TAF) to Ekshärad Airport

Forecast is more than 12 hours old.

Closest forecast is Oslo Airport, Gardermoen, 72.5 nm (134.4 km) W.

2023/02/22 18:36 (retrieved 1 year ago)

TAF ENGM 221700Z 2218/2318 17010KT 9000 -SN SCT012 BKN025 BECMG 2218/2220 4000 -SN SCT004 BKN012 TEMPO 2220/2305 1200 SN BR VV004 BECMG 2307/2309 01012KT 9999 NSW SCT030